Time;durP1;ratioP1;P1;durP2;ratioP2;P2;SDS_P1;SDS_P2;PMS_P1;PMS_P2;Temp;Humidity;BMP_temperature;BMP_pressure;BME280_temperature;BME280_humidity;BME280_pressure;Samples;Min_cycle;Max_cycle;Signal;HPM_P1;HPM_P2
2022/06/24 00:02:18;;;;;;;1.92;1.77;;;19.10;45.90;;;;;;5079583;28;20754;-51
2022/06/24 00:04:51;;;;;;;3.38;2.10;;;19.10;46.00;;;;;;5109934;28;20035;-51
2022/06/24 00:07:17;;;;;;;2.22;2.00;;;19.10;45.80;;;;;;5070919;28;20028;-49
2022/06/24 00:09:44;;;;;;;2.97;2.00;;;19.10;45.70;;;;;;5111872;28;20034;-51
2022/06/24 00:12:19;;;;;;;2.10;1.90;;;19.00;45.50;;;;;;5090527;28;20028;-52
2022/06/24 00:14:59;;;;;;;2.87;2.10;;;19.00;46.40;;;;;;5112119;28;20028;-47
2022/06/24 00:17:28;;;;;;;2.42;1.83;;;19.00;46.80;;;;;;5072525;28;20282;-47
2022/06/24 00:19:58;;;;;;;3.45;2.25;;;18.90;46.00;;;;;;5112038;28;20061;-48
2022/06/24 00:22:25;;;;;;;2.72;2.20;;;18.90;46.20;;;;;;5091950;28;20106;-48
2022/06/24 00:25:10;;;;;;;2.83;2.15;;;18.90;46.30;;;;;;5111825;28;20387;-46
2022/06/24 00:27:36;;;;;;;4.32;2.20;;;18.80;47.80;;;;;;5074159;28;20044;-46
2022/06/24 00:30:15;;;;;;;4.80;2.10;;;18.80;46.80;;;;;;5091356;28;20048;-47
2022/06/24 00:32:42;;;;;;;3.53;2.30;;;18.80;49.60;;;;;;5077288;28;20114;-48
2022/06/24 00:35:11;;;;;;;3.65;2.15;;;18.70;49.20;;;;;;5110150;28;20447;-48
2022/06/24 00:37:38;;;;;;;3.90;2.40;;;18.70;48.70;;;;;;5092613;28;20484;-46
2022/06/24 00:40:10;;;;;;;2.70;2.20;;;18.70;48.30;;;;;;5111251;28;20024;-46
2022/06/24 00:42:41;;;;;;;3.92;2.08;;;18.70;48.10;;;;;;5092408;28;20051;-47
2022/06/24 00:45:17;;;;;;;1.85;1.73;;;18.60;48.50;;;;;;5111474;28;20023;-47
2022/06/24 00:47:44;;;;;;;2.20;2.00;;;18.60;48.50;;;;;;5076664;28;20026;-49
2022/06/24 00:50:21;;;;;;;3.10;2.30;;;18.60;47.70;;;;;;5111505;28;20506;-47
2022/06/24 00:52:47;;;;;;;1.80;1.70;;;18.50;48.80;;;;;;5077444;28;20099;-48
2022/06/24 00:55:18;;;;;;;2.72;2.38;;;18.50;48.10;;;;;;5111137;28;20110;-47
2022/06/24 00:57:43;;;;;;;2.15;1.95;;;18.40;48.40;;;;;;5076163;28;20020;-50
2022/06/24 01:00:13;;;;;;;3.08;1.70;;;18.40;48.10;;;;;;5097920;28;20034;-50
2022/06/24 01:02:40;;;;;;;3.15;2.03;;;18.30;49.00;;;;;;5108894;28;20092;-48
2022/06/24 01:05:07;;;;;;;3.40;1.90;;;18.30;49.30;;;;;;5111075;27;20020;-49
2022/06/24 01:07:37;;;;;;;2.47;1.73;;;18.30;50.00;;;;;;5090697;28;20031;-46
2022/06/24 01:10:03;;;;;;;4.07;2.00;;;18.30;49.90;;;;;;5111000;28;20106;-49
2022/06/24 01:12:31;;;;;;;4.13;2.45;;;18.30;49.00;;;;;;5090253;28;20426;-46
2022/06/24 01:14:57;;;;;;;2.97;2.00;;;18.30;49.60;;;;;;5110849;28;20024;-48
2022/06/24 01:17:23;;;;;;;3.95;2.10;;;18.30;48.70;;;;;;5089185;28;20568;-46
2022/06/24 01:19:49;;;;;;;5.20;1.98;;;18.30;49.00;;;;;;5110633;28;20019;-46
2022/06/24 01:22:20;;;;;;;3.92;2.08;;;18.20;49.60;;;;;;5090677;28;20051;-48
2022/06/24 01:24:45;;;;;;;2.53;2.20;;;18.20;50.40;;;;;;5088392;28;20047;-50
2022/06/24 01:27:11;;;;;;;3.47;2.00;;;18.20;48.70;;;;;;5107898;28;20031;-47
2022/06/24 01:29:36;;;;;;;4.65;2.35;;;18.10;48.60;;;;;;5088210;28;20089;-52
2022/06/24 01:32:02;;;;;;;5.20;2.70;;;18.10;48.80;;;;;;5109702;28;20395;-47
2022/06/24 01:34:28;;;;;;;3.80;2.28;;;18.10;49.80;;;;;;5088549;28;20035;-49
2022/06/24 01:36:53;;;;;;;3.10;2.38;;;18.10;48.90;;;;;;5109681;28;20020;-51
2022/06/24 01:39:20;;;;;;;2.47;2.13;;;18.10;48.90;;;;;;5088375;28;20036;-58
2022/06/24 01:41:46;;;;;;;5.20;2.30;;;18.00;48.80;;;;;;5109731;28;20019;-57
2022/06/24 01:44:12;;;;;;;3.90;1.98;;;18.00;48.70;;;;;;5088508;28;20035;-58
2022/06/24 01:46:37;;;;;;;2.72;2.50;;;17.90;48.80;;;;;;5109327;28;20028;-59
2022/06/24 01:49:03;;;;;;;3.13;2.25;;;18.00;49.10;;;;;;5088425;28;20024;-61
2022/06/24 01:51:30;;;;;;;2.38;2.17;;;18.00;49.20;;;;;;5109114;28;20590;-59
2022/06/24 01:53:55;;;;;;;5.22;2.70;;;17.90;49.20;;;;;;5088049;28;20042;-59
2022/06/24 01:56:21;;;;;;;4.57;2.55;;;17.90;49.20;;;;;;5108771;28;20122;-59
2022/06/24 01:58:47;;;;;;;2.80;1.98;;;17.80;49.50;;;;;;5099046;28;20530;-59
2022/06/24 02:01:12;;;;;;;3.20;2.65;;;17.80;49.20;;;;;;5082454;28;20043;-58
2022/06/24 02:03:38;;;;;;;2.95;2.17;;;17.80;49.40;;;;;;5106705;28;20722;-59
2022/06/24 02:06:10;;;;;;;2.50;2.20;;;17.80;49.50;;;;;;5089823;28;20055;-59
2022/06/24 02:08:36;;;;;;;4.47;2.30;;;17.70;50.20;;;;;;5085374;28;20039;-59
2022/06/24 02:13:48;;;;;;;3.25;2.72;;;17.70;50.70;;;;;;5081344;28;20111;-60
2022/06/24 02:16:14;;;;;;;4.00;2.70;;;17.70;51.00;;;;;;5108546;28;20035;-59
2022/06/24 02:19:11;;;;;;;3.03;2.38;;;17.70;50.40;;;;;;5096853;28;20531;-59
2022/06/24 02:21:37;;;;;;;2.55;2.35;;;17.70;51.90;;;;;;5068656;28;20028;-59
2022/06/24 02:24:03;;;;;;;4.03;2.67;;;17.60;50.20;;;;;;5093521;28;20442;-59
2022/06/24 02:26:29;;;;;;;4.47;2.45;;;17.50;51.20;;;;;;5108697;28;20038;-59
2022/06/24 02:28:55;;;;;;;3.42;2.70;;;17.50;51.80;;;;;;5087281;28;20048;-60
2022/06/24 02:31:21;;;;;;;2.90;2.60;;;17.50;53.80;;;;;;5108728;28;20027;-59
2022/06/24 02:33:47;;;;;;;3.00;2.17;;;17.40;53.40;;;;;;5097279;28;20075;-60
2022/06/24 02:36:12;;;;;;;3.33;2.85;;;17.40;53.10;;;;;;5087800;28;20028;-58
2022/06/24 02:38:38;;;;;;;4.28;2.45;;;17.40;54.30;;;;;;5106004;28;20038;-59
2022/06/24 02:41:03;;;;;;;2.70;2.10;;;17.30;54.40;;;;;;5088779;28;20028;-59
2022/06/24 02:43:32;;;;;;;4.03;2.30;;;17.30;54.20;;;;;;5106479;28;20041;-59
2022/06/24 02:45:59;;;;;;;5.55;2.88;;;17.30;54.30;;;;;;5109414;28;20008;-59
2022/06/24 02:48:25;;;;;;;3.35;2.60;;;17.20;54.20;;;;;;5093456;28;20081;-59
2022/06/24 02:50:52;;;;;;;2.95;2.55;;;17.30;54.70;;;;;;5109115;28;20024;-59
2022/06/24 02:53:19;;;;;;;5.15;2.38;;;17.20;55.40;;;;;;5092121;28;20034;-59
2022/06/24 02:55:46;;;;;;;5.35;2.92;;;17.20;56.00;;;;;;5108802;28;20032;-59
2022/06/24 02:58:12;;;;;;;3.15;2.70;;;17.20;56.60;;;;;;5091298;28;20483;-58
2022/06/24 03:00:41;;;;;;;4.25;2.63;;;17.20;56.50;;;;;;5088368;28;20488;-59
2022/06/24 03:03:11;;;;;;;4.60;2.70;;;17.20;56.30;;;;;;5106623;28;20292;-59
2022/06/24 03:05:37;;;;;;;5.60;2.83;;;17.30;56.00;;;;;;5109033;28;20024;-59
2022/06/24 03:08:02;;;;;;;5.15;2.50;;;17.30;55.90;;;;;;5090049;28;20032;-59
2022/06/24 03:10:28;;;;;;;3.00;2.47;;;17.30;55.40;;;;;;5108743;28;20064;-59
2022/06/24 03:12:53;;;;;;;4.57;2.85;;;17.30;55.10;;;;;;5088571;28;20036;-60
2022/06/24 03:15:19;;;;;;;3.03;2.55;;;17.30;55.50;;;;;;5108556;28;20039;-59
2022/06/24 03:17:44;;;;;;;4.32;2.63;;;17.30;55.20;;;;;;5087137;28;20043;-59
2022/06/24 03:20:10;;;;;;;5.32;2.80;;;17.40;57.50;;;;;;5108644;28;20015;-60
2022/06/24 03:22:36;;;;;;;4.15;3.03;;;17.40;55.80;;;;;;5088872;28;20027;-60
2022/06/24 03:25:03;;;;;;;3.08;2.78;;;17.40;54.80;;;;;;5087061;28;20063;-60
2022/06/24 03:27:29;;;;;;;5.75;2.97;;;17.50;54.50;;;;;;5104163;28;20044;-60
2022/06/24 03:29:54;;;;;;;2.80;2.60;;;17.50;54.20;;;;;;5086549;28;20035;-60
2022/06/24 03:32:20;;;;;;;6.03;2.92;;;17.50;54.40;;;;;;5107598;28;20300;-59
2022/06/24 03:34:45;;;;;;;6.38;2.70;;;17.60;54.40;;;;;;5087091;28;20036;-60
2022/06/24 03:37:11;;;;;;;4.13;2.70;;;17.70;52.80;;;;;;5107699;28;20040;-60
2022/06/24 03:39:36;;;;;;;5.00;2.95;;;17.80;52.50;;;;;;5086918;28;20028;-60
2022/06/24 03:42:03;;;;;;;4.00;2.60;;;17.90;52.50;;;;;;5107755;28;20019;-60
2022/06/24 03:44:29;;;;;;;4.85;2.90;;;18.50;50.00;;;;;;5086690;28;20028;-60
2022/06/24 03:46:54;;;;;;;4.65;2.78;;;19.20;46.30;;;;;;5107971;28;20032;-60
2022/06/24 03:49:20;;;;;;;4.28;2.17;;;19.90;41.90;;;;;;5086675;28;20032;-60
2022/06/24 03:51:46;;;;;;;3.65;2.47;;;20.60;40.40;;;;;;5110838;28;20024;-60
2022/06/24 03:54:12;;;;;;;3.00;2.75;;;21.30;37.30;;;;;;5090480;28;20508;-60
2022/06/24 03:56:37;;;;;;;3.30;2.55;;;21.80;34.20;;;;;;5111621;28;20035;-60
2022/06/24 03:59:03;;;;;;;3.03;2.47;;;22.20;31.60;;;;;;5100436;27;20617;-60
2022/06/24 04:01:29;;;;;;;5.05;2.50;;;22.90;30.50;;;;;;5084707;28;20233;-60
2022/06/24 04:03:54;;;;;;;4.18;2.45;;;23.30;28.60;;;;;;5109557;28;20024;-60
2022/06/24 04:06:20;;;;;;;5.47;2.40;;;23.90;24.90;;;;;;5092031;28;20020;-60
2022/06/24 04:08:46;;;;;;;3.25;2.47;;;24.30;25.90;;;;;;5109442;28;20038;-60
2022/06/24 04:11:13;;;;;;;4.25;2.60;;;24.80;22.40;;;;;;5112009;28;20028;-60
2022/06/24 04:13:38;;;;;;;2.80;2.20;;;25.00;17.00;;;;;;5096117;28;20081;-61
2022/06/24 04:16:04;;;;;;;3.88;2.28;;;25.10;19.00;;;;;;5111842;28;20035;-60
2022/06/24 04:18:30;;;;;;;3.13;2.25;;;25.40;20.20;;;;;;5094691;28;20395;-60
2022/06/24 04:20:56;;;;;;;2.80;2.58;;;25.80;17.10;;;;;;5112009;28;20036;-60
2022/06/24 04:23:22;;;;;;;2.75;2.42;;;25.90;15.90;;;;;;5093314;28;20024;-60
2022/06/24 04:25:48;;;;;;;5.22;2.13;;;26.30;17.30;;;;;;5111863;28;20487;-60
2022/06/24 04:28:14;;;;;;;3.60;2.65;;;26.60;13.30;;;;;;5096942;28;20050;-59
2022/06/24 04:30:39;;;;;;;2.45;2.25;;;26.60;14.60;;;;;;5089882;28;20095;-60
2022/06/24 04:33:05;;;;;;;5.13;2.30;;;27.20;13.30;;;;;;5090829;28;20048;-59
2022/06/24 04:35:30;;;;;;;4.63;2.22;;;27.50;14.00;;;;;;5111450;28;20042;-60
2022/06/24 04:37:56;;;;;;;2.40;2.10;;;27.90;12.10;;;;;;5091668;28;20085;-60
2022/06/24 04:40:22;;;;;;;2.88;1.92;;;28.00;12.20;;;;;;5108745;28;20031;-60
2022/06/24 04:42:47;;;;;;;2.40;2.20;;;28.30;10.00;;;;;;5095553;28;20092;-60
2022/06/24 04:45:13;;;;;;;6.45;2.45;;;28.20;8.00;;;;;;5086706;28;20523;-60
2022/06/24 04:47:38;;;;;;;4.10;2.05;;;28.40;7.60;;;;;;5089762;28;20054;-60
2022/06/24 04:50:05;;;;;;;2.90;2.20;;;28.30;9.40;;;;;;5090239;28;20047;-60
2022/06/24 04:52:31;;;;;;;3.75;2.05;;;28.90;10.00;;;;;;5089673;28;20044;-60
2022/06/24 04:54:57;;;;;;;2.65;2.28;;;29.30;8.30;;;;;;5092605;28;20044;-60
2022/06/24 04:57:23;;;;;;;2.47;2.22;;;29.30;7.20;;;;;;5110151;28;20020;-59
2022/06/24 04:59:48;;;;;;;3.47;2.78;;;29.30;6.90;;;;;;5094640;28;20031;-59
2022/06/24 05:02:14;;;;;;;2.90;2.47;;;29.50;5.50;;;;;;5088939;28;20099;-60
2022/06/24 05:04:40;;;;;;;3.00;2.33;;;29.50;5.60;;;;;;5090875;28;20416;-59
2022/06/24 05:07:06;;;;;;;3.72;2.20;;;29.80;4.60;;;;;;5107362;28;20036;-60
2022/06/24 05:09:31;;;;;;;3.40;2.50;;;30.10;6.40;;;;;;5096151;28;20032;-60
2022/06/24 05:11:57;;;;;;;4.55;2.25;;;30.50;5.00;;;;;;5110275;28;20031;-60
2022/06/24 05:14:23;;;;;;;5.20;1.85;;;30.80;2.50;;;;;;5099252;28;20376;-60
2022/06/24 05:16:48;;;;;;;4.50;2.35;;;31.20;4.10;;;;;;5090768;28;20491;-60
2022/06/24 05:19:14;;;;;;;2.65;2.10;;;31.80;1.70;;;;;;5107336;28;20437;-59
2022/06/24 05:21:39;;;;;;;3.05;2.17;;;31.80;2.60;;;;;;5090433;28;20024;-60
2022/06/24 05:24:05;;;;;;;3.03;1.98;;;32.10;1.00;;;;;;5107713;28;20487;-60
2022/06/24 05:26:31;;;;;;;3.15;2.10;;;32.20;1.00;;;;;;5090644;28;20028;-60
2022/06/24 05:28:57;;;;;;;2.97;2.35;;;32.60;1.10;;;;;;5107388;28;20050;-60
2022/06/24 05:31:23;;;;;;;2.08;1.70;;;33.20;1.00;;;;;;5110071;28;20036;-60
2022/06/24 05:33:48;;;;;;;3.28;2.00;;;34.00;1.00;;;;;;5093740;28;20035;-60
2022/06/24 05:36:14;;;;;;;2.92;1.90;;;33.70;1.00;;;;;;5109913;28;20387;-59
2022/06/24 05:38:39;;;;;;;5.45;1.90;;;33.60;1.00;;;;;;5091945;28;20038;-60
2022/06/24 05:41:05;;;;;;;2.75;2.00;;;34.30;1.00;;;;;;5110218;28;20020;-60
2022/06/24 05:43:31;;;;;;;2.97;2.00;;;35.00;1.00;;;;;;5090469;28;20365;-59
2022/06/24 05:45:56;;;;;;;2.88;2.05;;;34.90;1.00;;;;;;5110211;28;20032;-60
2022/06/24 05:48:22;;;;;;;4.63;2.45;;;35.30;1.00;;;;;;5089043;28;20392;-60
2022/06/24 05:50:48;;;;;;;3.33;2.15;;;35.30;1.00;;;;;;5110214;28;20102;-60
2022/06/24 05:56:00;;;;;;;4.35;2.00;;;35.30;1.00;;;;;;5089307;28;20054;-60
2022/06/24 05:58:30;;;;;;;2.42;1.75;;;35.40;1.00;;;;;;5107488;28;20027;-61
2022/06/24 06:00:56;;;;;;;3.45;1.85;;;36.40;1.00;;;;;;5102161;28;20507;-60
2022/06/24 06:03:23;;;;;;;2.58;1.92;;;36.60;1.00;;;;;;5088270;28;20115;-60
2022/06/24 06:05:49;;;;;;;3.50;1.77;;;37.00;1.00;;;;;;5109811;28;20024;-60
2022/06/24 06:08:15;;;;;;;2.90;1.98;;;37.70;1.00;;;;;;5089528;27;20035;-59
2022/06/24 06:10:43;;;;;;;4.47;2.20;;;37.80;1.00;;;;;;5107209;28;20089;-59
2022/06/24 06:13:09;;;;;;;4.38;1.92;;;37.30;1.00;;;;;;5089402;28;20016;-60
2022/06/24 06:15:34;;;;;;;5.25;2.22;;;37.50;1.00;;;;;;5087702;28;20089;-60
2022/06/24 06:18:01;;;;;;;2.22;1.92;;;37.30;1.00;;;;;;5108856;28;20032;-60
2022/06/24 06:20:27;;;;;;;2.47;1.77;;;37.50;1.00;;;;;;5087580;28;20020;-59
2022/06/24 06:22:53;;;;;;;4.18;2.03;;;37.90;1.00;;;;;;5108512;28;20031;-60
2022/06/24 06:25:18;;;;;;;2.75;1.90;;;38.30;1.00;;;;;;5087725;28;20032;-60
2022/06/24 06:27:44;;;;;;;3.58;1.95;;;38.30;1.00;;;;;;5104518;28;20044;-59
2022/06/24 06:30:10;;;;;;;2.55;2.28;;;39.00;1.00;;;;;;5087097;28;20062;-60
2022/06/24 06:32:36;;;;;;;4.30;2.35;;;38.90;1.00;;;;;;5108303;28;20507;-60
2022/06/24 06:35:03;;;;;;;4.78;2.30;;;37.90;1.00;;;;;;5087472;28;20115;-59
2022/06/24 06:37:29;;;;;;;3.90;1.90;;;37.20;1.00;;;;;;5108657;28;20498;-59
2022/06/24 06:39:55;;;;;;;4.65;2.22;;;37.50;1.00;;;;;;5087244;28;20032;-59
2022/06/24 06:42:21;;;;;;;2.83;1.98;;;38.20;1.00;;;;;;5108516;28;20483;-59
2022/06/24 06:44:47;;;;;;;3.97;2.00;;;39.00;1.00;;;;;;5087280;28;20024;-59
2022/06/24 06:47:12;;;;;;;3.53;1.75;;;39.40;1.00;;;;;;5108394;28;20024;-59
2022/06/24 06:49:38;;;;;;;2.22;1.80;;;40.30;1.00;;;;;;5097276;28;20023;-59
2022/06/24 06:52:04;;;;;;;4.75;2.25;;;40.80;1.00;;;;;;5088979;28;20051;-59
2022/06/24 06:54:30;;;;;;;2.72;1.65;;;40.40;1.00;;;;;;5106305;28;20047;-59
2022/06/24 06:56:56;;;;;;;4.53;2.35;;;40.30;1.00;;;;;;5088885;28;20032;-59
2022/06/24 06:59:21;;;;;;;3.65;2.33;;;40.50;1.00;;;;;;5094793;28;20437;-50
2022/06/24 07:01:47;;;;;;;2.67;1.90;;;40.00;1.00;;;;;;5084653;28;20032;-59
2022/06/24 07:04:13;;;;;;;5.55;2.38;;;40.40;1.00;;;;;;5100063;28;20030;-58
2022/06/24 07:06:38;;;;;;;2.90;2.30;;;40.10;1.00;;;;;;5088598;28;20028;-59
2022/06/24 07:09:04;;;;;;;4.28;2.22;;;40.20;1.00;;;;;;5104636;28;20024;-59
2022/06/24 07:11:29;;;;;;;3.00;1.83;;;40.50;1.00;;;;;;5108867;28;20047;-59
2022/06/24 07:13:55;;;;;;;4.15;1.98;;;41.20;1.00;;;;;;5090114;28;20116;-59
2022/06/24 07:16:21;;;;;;;6.28;2.28;;;41.50;1.00;;;;;;5108830;28;20039;-59
2022/06/24 07:18:46;;;;;;;2.25;2.00;;;41.40;1.00;;;;;;5088843;28;20625;-60
2022/06/24 07:21:15;;;;;;;3.08;2.08;;;41.10;1.00;;;;;;5108865;28;20483;-58
2022/06/24 07:23:41;;;;;;;4.47;1.85;;;41.50;1.00;;;;;;5087581;28;20395;-59
2022/06/24 07:26:07;;;;;;;6.20;2.47;;;41.50;1.00;;;;;;5110702;28;20023;-60
2022/06/24 07:28:34;;;;;;;3.17;2.08;;;40.70;1.00;;;;;;5102787;28;20062;-60
2022/06/24 07:31:00;;;;;;;6.20;2.42;;;40.30;1.00;;;;;;5112361;28;20476;-59
2022/06/24 07:33:25;;;;;;;4.72;2.08;;;40.00;1.00;;;;;;5092560;28;20044;-60
2022/06/24 07:35:51;;;;;;;5.95;2.10;;;40.10;1.00;;;;;;5091041;28;20111;-60
2022/06/24 07:38:18;;;;;;;5.88;2.30;;;39.60;1.00;;;;;;5111753;28;20036;-51
2022/06/24 07:40:43;;;;;;;5.38;1.73;;;39.80;1.00;;;;;;5090678;28;20085;-44
2022/06/24 07:43:09;;;;;;;4.07;2.72;;;40.30;1.00;;;;;;5111614;28;20035;-49
2022/06/24 07:45:35;;;;;;;2.78;2.20;;;40.50;1.00;;;;;;5089416;28;20108;-48
2022/06/24 07:48:01;;;;;;;4.30;2.17;;;39.90;1.00;;;;;;5111622;28;20070;-48
2022/06/24 07:50:26;;;;;;;2.00;1.83;;;39.50;1.00;;;;;;5090558;28;20046;-50
2022/06/24 07:52:52;;;;;;;2.90;2.00;;;40.20;1.00;;;;;;5111624;28;20019;-47
2022/06/24 07:58:02;;;;;;;3.20;1.92;;;39.70;1.00;;;;;;5072016;28;20039;-48
2022/06/24 08:00:28;;;;;;;3.15;2.10;;;40.50;1.00;;;;;;5100494;28;20110;-49
2022/06/24 08:02:53;;;;;;;2.78;1.92;;;40.80;1.00;;;;;;5092103;28;20028;-49
2022/06/24 08:05:19;;;;;;;4.85;2.00;;;39.00;1.00;;;;;;5095863;28;20039;-47
2022/06/24 08:07:44;;;;;;;7.53;1.92;;;38.20;1.00;;;;;;5111188;28;20028;-47
2022/06/24 08:10:11;;;;;;;2.92;1.88;;;38.30;1.00;;;;;;5090488;28;20032;-49
2022/06/24 08:12:36;;;;;;;4.55;2.22;;;38.50;1.00;;;;;;5111039;28;20040;-50
2022/06/24 08:15:02;;;;;;;4.05;1.60;;;37.20;1.00;;;;;;5101059;28;20027;-50
2022/06/24 08:17:28;;;;;;;1.55;1.45;;;37.20;1.00;;;;;;5091890;28;20122;-49
2022/06/24 08:19:53;;;;;;;3.78;2.00;;;37.00;1.00;;;;;;5108934;28;20111;-50
2022/06/24 08:22:20;;;;;;;3.20;1.75;;;36.70;1.00;;;;;;5092089;28;20573;-48
2022/06/24 08:24:46;;;;;;;3.47;2.30;;;35.40;1.00;;;;;;5109002;28;20034;-49
2022/06/24 08:27:12;;;;;;;3.20;1.73;;;35.30;1.00;;;;;;5091881;28;20031;-48
2022/06/24 08:29:38;;;;;;;5.72;2.53;;;35.90;1.00;;;;;;5108682;28;20132;-50
2022/06/24 08:32:03;;;;;;;5.50;2.17;;;36.20;1.00;;;;;;5111759;28;20073;-50
2022/06/24 08:34:29;;;;;;;2.67;1.83;;;36.40;1.00;;;;;;5095544;28;20065;-49
2022/06/24 08:36:54;;;;;;;4.63;2.42;;;36.20;1.00;;;;;;5110337;28;20023;-48
2022/06/24 08:39:20;;;;;;;5.03;1.90;;;36.20;1.00;;;;;;5094067;28;20530;-49
2022/06/24 08:41:47;;;;;;;3.97;2.20;;;35.30;1.00;;;;;;5111329;28;20027;-48
2022/06/24 08:44:13;;;;;;;3.13;2.00;;;34.50;1.00;;;;;;5092674;28;20095;-50
2022/06/24 08:46:42;;;;;;;4.50;2.38;;;33.90;1.00;;;;;;5111325;27;20027;-49
2022/06/24 08:49:07;;;;;;;2.75;1.88;;;34.00;1.00;;;;;;5091558;28;20016;-48
2022/06/24 08:51:34;;;;;;;4.57;2.08;;;34.00;1.00;;;;;;5111365;28;20102;-48
2022/06/24 08:54:02;;;;;;;5.70;2.10;;;34.00;1.00;;;;;;5090348;28;20040;-48
2022/06/24 08:56:28;;;;;;;3.25;1.80;;;34.00;1.00;;;;;;5110879;28;20044;-49
2022/06/24 08:58:54;;;;;;;2.10;1.90;;;33.80;1.00;;;;;;5089382;28;20024;-48
2022/06/24 09:01:20;;;;;;;5.57;2.10;;;33.60;1.00;;;;;;5103424;28;20111;-51
2022/06/24 09:03:47;;;;;;;2.80;2.53;;;33.30;1.00;;;;;;5091227;28;20111;-48
2022/06/24 09:06:14;;;;;;;5.38;1.90;;;33.10;1.00;;;;;;5088826;28;20052;-50
2022/06/24 09:08:45;;;;;;;2.92;2.10;;;32.60;1.00;;;;;;5110229;28;20114;-48
2022/06/24 09:11:11;;;;;;;5.03;1.90;;;32.50;1.00;;;;;;5087435;28;20024;-52
2022/06/24 09:13:53;;;;;;;2.97;1.85;;;33.00;1.00;;;;;;5110309;28;20027;-49
2022/06/24 09:16:18;;;;;;;4.50;1.90;;;33.10;1.00;;;;;;5088404;28;20052;-49
2022/06/24 09:18:59;;;;;;;4.07;2.05;;;33.30;1.00;;;;;;5110102;28;20428;-49
2022/06/24 09:21:28;;;;;;;5.40;2.63;;;33.70;1.00;;;;;;5110542;28;20040;-47
2022/06/24 09:24:00;;;;;;;3.50;2.22;;;33.80;1.00;;;;;;5090330;28;20024;-52
2022/06/24 09:26:40;;;;;;;6.18;2.58;;;33.70;1.00;;;;;;5070085;28;20098;-47
2022/06/24 09:29:16;;;;;;;3.95;2.45;;;32.80;1.00;;;;;;5107385;28;20040;-47
2022/06/24 09:31:42;;;;;;;3.10;2.63;;;32.20;1.00;;;;;;5110541;28;20032;-47
2022/06/24 09:34:16;;;;;;;3.83;2.45;;;31.90;1.00;;;;;;5089500;28;20024;-49
2022/06/24 09:36:45;;;;;;;3.30;1.58;;;32.10;1.00;;;;;;5110194;28;20020;-48
2022/06/24 09:39:12;;;;;;;3.10;1.95;;;32.40;1.00;;;;;;5089378;27;20106;-49
2022/06/24 09:41:54;;;;;;;2.20;1.90;;;32.20;1.00;;;;;;5110277;28;20034;-47
2022/06/24 09:44:21;;;;;;;3.50;2.13;;;31.90;1.00;;;;;;5072655;28;20060;-52
2022/06/24 09:46:48;;;;;;;3.05;2.25;;;31.60;1.00;;;;;;5110334;28;20026;-50
2022/06/24 09:49:15;;;;;;;2.15;1.88;;;31.50;1.00;;;;;;5089139;28;20029;-47
2022/06/24 09:51:44;;;;;;;3.45;2.08;;;31.70;1.00;;;;;;5084148;28;20044;-49
2022/06/24 09:54:10;;;;;;;4.03;2.78;;;31.80;1.00;;;;;;5079841;28;20135;-48
2022/06/24 09:56:37;;;;;;;3.58;2.08;;;31.40;1.00;;;;;;5081316;28;20048;-48
2022/06/24 10:01:49;;;;;;;3.97;2.00;;;31.30;1.00;;;;;;5072519;28;20039;-50
2022/06/24 10:04:18;;;;;;;4.05;1.90;;;31.40;1.00;;;;;;5097937;28;20150;-50
2022/06/24 10:06:46;;;;;;;2.42;1.95;;;31.30;1.00;;;;;;5085365;28;20499;-53
2022/06/24 10:09:12;;;;;;;4.43;1.80;;;31.00;1.00;;;;;;5083169;28;20111;-47
2022/06/24 10:11:41;;;;;;;4.10;1.70;;;31.00;1.00;;;;;;5093009;28;20024;-48
2022/06/24 10:14:08;;;;;;;2.58;1.70;;;31.10;1.00;;;;;;5089370;28;20075;-51
2022/06/24 10:16:35;;;;;;;3.47;1.90;;;30.70;1.00;;;;;;5066584;28;20036;-47
2022/06/24 10:19:02;;;;;;;3.53;1.95;;;30.50;1.00;;;;;;5084023;28;20028;-47
2022/06/24 10:21:28;;;;;;;2.35;1.80;;;30.40;1.00;;;;;;5073385;28;20086;-49
2022/06/24 10:23:54;;;;;;;2.20;1.77;;;30.30;1.00;;;;;;5095938;28;20086;-50
2022/06/24 10:26:26;;;;;;;1.80;1.58;;;30.30;1.00;;;;;;5070121;28;20574;-49
2022/06/24 10:29:03;;;;;;;2.15;1.92;;;30.30;1.00;;;;;;5077192;28;20044;-50
2022/06/24 10:31:52;;;;;;;2.30;2.00;;;30.30;1.00;;;;;;5065840;28;20119;-48
2022/06/24 10:34:33;;;;;;;2.15;1.95;;;30.40;1.00;;;;;;5076409;28;20578;-49
2022/06/24 10:37:16;;;;;;;5.57;2.00;;;30.20;1.00;;;;;;5092673;28;20040;-47
2022/06/24 10:39:49;;;;;;;5.43;2.30;;;30.10;1.00;;;;;;5080416;28;20028;-48
2022/06/24 10:42:15;;;;;;;3.40;1.88;;;30.00;1.00;;;;;;5093882;28;20031;-49
2022/06/24 10:44:56;;;;;;;2.50;1.83;;;30.00;1.00;;;;;;5101401;28;20076;-47
2022/06/24 10:47:21;;;;;;;4.85;1.90;;;30.00;1.00;;;;;;5093805;28;20024;-49
2022/06/24 10:49:56;;;;;;;2.47;1.80;;;30.00;1.00;;;;;;5088300;28;20035;-49
2022/06/24 10:52:48;;;;;;;3.13;2.10;;;30.00;1.00;;;;;;5071740;28;20601;-48
2022/06/24 10:55:28;;;;;;;3.80;2.15;;;29.90;1.00;;;;;;5082656;28;20046;-49
2022/06/24 10:57:57;;;;;;;5.07;1.90;;;29.90;1.00;;;;;;5070623;28;20047;-46
2022/06/24 11:00:24;;;;;;;2.20;1.67;;;29.90;1.00;;;;;;5089611;28;20051;-47
2022/06/24 11:02:53;;;;;;;2.13;1.90;;;29.90;1.00;;;;;;5088810;28;20039;-47
2022/06/24 11:05:24;;;;;;;2.55;2.30;;;29.90;1.00;;;;;;5101831;28;20114;-47
2022/06/24 11:07:50;;;;;;;4.65;2.45;;;29.80;1.00;;;;;;5079038;28;20463;-48
2022/06/24 11:10:24;;;;;;;3.55;2.17;;;29.80;1.00;;;;;;5094536;28;20031;-47
2022/06/24 11:12:57;;;;;;;3.00;1.95;;;29.90;1.00;;;;;;5071963;28;20032;-52
2022/06/24 11:15:38;;;;;;;3.88;1.88;;;29.90;1.00;;;;;;5090119;28;20043;-48
2022/06/24 11:18:15;;;;;;;2.25;1.90;;;30.00;1.00;;;;;;5086150;28;20157;-50
2022/06/24 11:20:49;;;;;;;3.20;1.90;;;30.10;1.00;;;;;;5087178;28;20132;-47
2022/06/24 11:23:17;;;;;;;2.90;2.15;;;30.10;1.00;;;;;;5076270;28;20033;-47
2022/06/24 11:25:49;;;;;;;3.08;2.15;;;30.20;1.00;;;;;;5099913;28;20031;-46
2022/06/24 11:28:25;;;;;;;2.20;1.88;;;30.20;1.00;;;;;;5103318;28;20048;-46
2022/06/24 11:30:53;;;;;;;2.42;1.80;;;30.10;1.00;;;;;;5075680;28;20039;-49
2022/06/24 11:33:19;;;;;;;3.45;2.10;;;30.20;1.00;;;;;;5078904;28;20181;-46
2022/06/24 11:35:49;;;;;;;3.70;2.30;;;30.20;1.00;;;;;;5079305;28;20041;-49
2022/06/24 11:38:16;;;;;;;2.25;1.92;;;30.20;1.00;;;;;;5074772;28;20028;-51
2022/06/24 11:40:42;;;;;;;1.90;1.70;;;30.20;1.00;;;;;;5080191;28;20036;-46
2022/06/24 11:43:12;;;;;;;1.83;1.73;;;30.30;1.00;;;;;;5081937;28;20024;-48
2022/06/24 11:45:43;;;;;;;6.00;2.28;;;30.30;1.00;;;;;;5093522;28;20032;-49
2022/06/24 11:48:11;;;;;;;4.30;1.98;;;30.30;1.00;;;;;;5106786;28;20042;-47
2022/06/24 11:50:38;;;;;;;3.10;2.30;;;30.30;1.00;;;;;;5094949;28;20398;-48
2022/06/24 11:53:05;;;;;;;4.18;2.40;;;30.40;1.00;;;;;;5085752;28;20027;-48
2022/06/24 11:55:32;;;;;;;2.42;1.92;;;30.40;1.00;;;;;;5088879;28;20032;-48
2022/06/24 11:58:00;;;;;;;3.83;2.53;;;30.30;1.00;;;;;;5086345;28;20024;-49
2022/06/24 12:00:28;;;;;;;4.30;2.05;;;30.30;1.00;;;;;;5089730;28;20060;-48
2022/06/24 12:02:55;;;;;;;2.70;2.03;;;30.20;1.00;;;;;;5106623;28;20323;-50
2022/06/24 12:05:23;;;;;;;2.08;1.90;;;30.30;1.00;;;;;;5092406;28;20402;-48
2022/06/24 12:07:49;;;;;;;2.58;1.85;;;30.40;1.00;;;;;;5105811;28;20462;-49
2022/06/24 12:10:15;;;;;;;3.17;2.00;;;30.40;1.00;;;;;;5090663;28;20027;-48
2022/06/24 12:12:56;;;;;;;3.85;2.30;;;30.40;1.00;;;;;;5109858;28;20076;-47
2022/06/24 12:15:45;;;;;;;2.63;2.42;;;30.50;1.00;;;;;;5082083;28;20063;-47
2022/06/24 12:18:14;;;;;;;4.13;2.50;;;30.60;1.00;;;;;;5083682;28;20346;-49
2022/06/24 12:20:40;;;;;;;4.15;1.95;;;30.70;1.00;;;;;;5108030;28;20030;-49
2022/06/24 12:23:20;;;;;;;5.55;2.40;;;30.80;1.00;;;;;;5090329;28;20024;-49
2022/06/24 12:25:48;;;;;;;3.45;2.38;;;30.80;1.00;;;;;;5088225;28;20089;-49
2022/06/24 12:28:17;;;;;;;3.13;2.08;;;30.70;1.00;;;;;;5097650;28;20028;-49
2022/06/24 12:30:53;;;;;;;3.88;2.35;;;30.70;1.00;;;;;;5108619;28;20020;-53
2022/06/24 12:33:19;;;;;;;5.13;2.40;;;30.80;1.00;;;;;;5069850;28;20020;-47
2022/06/24 12:35:45;;;;;;;4.90;2.38;;;30.80;1.00;;;;;;5106580;28;20495;-48
2022/06/24 12:38:12;;;;;;;3.75;2.17;;;30.70;1.00;;;;;;5090451;28;20487;-51
2022/06/24 12:40:42;;;;;;;4.07;2.10;;;30.90;1.00;;;;;;5107664;28;20028;-49
2022/06/24 12:43:12;;;;;;;2.50;2.10;;;31.00;1.00;;;;;;5089086;28;20020;-49
2022/06/24 12:45:39;;;;;;;3.30;2.25;;;31.20;1.00;;;;;;5084443;28;20114;-47
2022/06/24 12:51:12;;;;;;;6.57;2.20;;;31.50;1.00;;;;;;5088520;28;20521;-47
2022/06/24 12:53:37;;;;;;;2.40;2.15;;;31.40;1.00;;;;;;5069622;28;20592;-49
2022/06/24 12:56:03;;;;;;;2.97;2.20;;;31.30;1.00;;;;;;5095316;28;20115;-49
2022/06/24 12:58:28;;;;;;;2.97;2.00;;;31.20;1.00;;;;;;5108999;28;20030;-47
2022/06/24 13:00:55;;;;;;;2.33;1.98;;;31.30;1.00;;;;;;5080946;28;20658;-47
2022/06/24 13:03:20;;;;;;;3.40;2.45;;;31.30;1.00;;;;;;5109248;28;20062;-50
2022/06/24 13:05:47;;;;;;;3.10;1.92;;;31.40;1.00;;;;;;5097240;28;20452;-51
2022/06/24 13:08:12;;;;;;;3.35;1.80;;;31.40;1.00;;;;;;5090176;28;20667;-51
2022/06/24 13:10:38;;;;;;;3.92;2.42;;;31.40;1.00;;;;;;5106751;28;20031;-49